createdAt,value
2022-12-15T00:00:26.959Z,801.55
2022-12-15T00:01:26.956Z,801.53
2022-12-15T00:02:27.144Z,801.59
2022-12-15T00:03:27.186Z,801.54
2022-12-15T00:04:26.951Z,801.51
2022-12-15T00:05:26.954Z,801.53
2022-12-15T00:06:27.041Z,801.54
2022-12-15T00:07:26.966Z,801.55
2022-12-15T00:08:26.973Z,801.55
2022-12-15T00:09:30.812Z,801.58
2022-12-15T00:10:27.087Z,801.59
2022-12-15T00:11:26.993Z,801.60
2022-12-15T00:12:26.997Z,801.58
2022-12-15T00:13:27.163Z,801.58
2022-12-15T00:14:27.010Z,801.59
2022-12-15T00:15:27.013Z,801.62
2022-12-15T00:16:27.093Z,801.63
2022-12-15T00:17:27.047Z,801.62
2022-12-15T00:18:27.041Z,801.63
2022-12-15T00:19:27.034Z,801.64
2022-12-15T00:20:27.043Z,801.66
2022-12-15T00:21:27.046Z,801.62
2022-12-15T00:22:27.067Z,801.64
2022-12-15T00:23:27.293Z,801.60
2022-12-15T00:24:27.066Z,801.61
2022-12-15T00:25:27.070Z,801.63
2022-12-15T00:26:27.090Z,801.62
2022-12-15T00:27:27.084Z,801.60
2022-12-15T00:28:27.095Z,801.60
2022-12-15T00:29:27.092Z,801.58
2022-12-15T00:30:27.106Z,801.57
2022-12-15T00:31:27.175Z,801.56
2022-12-15T00:32:27.111Z,801.59
2022-12-15T00:33:27.376Z,801.57
2022-12-15T00:34:27.133Z,801.58
2022-12-15T00:35:27.124Z,801.55
2022-12-15T00:36:27.137Z,801.58
2022-12-15T00:37:27.144Z,801.59
2022-12-15T00:38:27.146Z,801.56
2022-12-15T00:39:27.149Z,801.61
2022-12-15T00:40:27.161Z,801.57
2022-12-15T00:41:27.163Z,801.60
2022-12-15T00:42:27.168Z,801.61
2022-12-15T00:43:27.687Z,801.59
2022-12-15T00:44:27.181Z,801.60
2022-12-15T00:45:27.183Z,801.55
2022-12-15T00:46:27.250Z,801.53
2022-12-15T00:47:27.196Z,801.50
2022-12-15T00:48:27.202Z,801.44
2022-12-15T00:49:27.227Z,801.51
2022-12-15T00:50:27.214Z,801.50
2022-12-15T00:51:27.219Z,801.47
2022-12-15T00:52:27.241Z,801.46
2022-12-15T00:53:27.566Z,801.47
2022-12-15T00:54:27.239Z,801.49
2022-12-15T00:55:27.243Z,801.50
2022-12-15T00:56:27.245Z,801.49
2022-12-15T00:57:27.249Z,801.53
2022-12-15T00:58:27.259Z,801.49
2022-12-15T00:59:27.268Z,801.50
2022-12-15T01:00:27.271Z,801.53
2022-12-15T01:01:27.399Z,801.53
2022-12-15T01:02:27.505Z,801.51
2022-12-15T01:03:27.569Z,801.51
2022-12-15T01:04:27.295Z,801.48
2022-12-15T01:05:27.319Z,801.48
2022-12-15T01:06:27.306Z,801.49
2022-12-15T01:07:27.312Z,801.43
2022-12-15T01:08:27.314Z,801.47
2022-12-15T01:09:27.318Z,801.49
2022-12-15T01:10:27.325Z,801.48
2022-12-15T01:11:27.329Z,801.46
2022-12-15T01:12:27.437Z,801.48
2022-12-15T01:13:27.484Z,801.52
2022-12-15T01:14:27.351Z,801.47
2022-12-15T01:15:27.357Z,801.46
2022-12-15T01:16:27.405Z,801.52
2022-12-15T01:17:27.362Z,801.52
2022-12-15T01:18:27.378Z,801.55
2022-12-15T01:19:27.427Z,801.59
2022-12-15T01:20:27.387Z,801.59
2022-12-15T01:21:27.425Z,801.60
2022-12-15T01:22:27.398Z,801.59
2022-12-15T01:23:27.761Z,801.59
2022-12-15T01:24:27.411Z,801.58
2022-12-15T01:25:27.412Z,801.56
2022-12-15T01:26:27.425Z,801.59
2022-12-15T01:27:27.420Z,801.60
2022-12-15T01:28:27.431Z,801.58
2022-12-15T01:29:27.433Z,801.60
2022-12-15T01:30:27.440Z,801.56
2022-12-15T01:31:27.485Z,801.57
2022-12-15T01:32:27.458Z,801.56
2022-12-15T01:33:27.751Z,801.55
2022-12-15T01:34:27.462Z,801.54
2022-12-15T01:35:27.467Z,801.53
2022-12-15T01:36:27.495Z,801.56
2022-12-15T01:37:27.502Z,801.55
2022-12-15T01:38:27.506Z,801.60
2022-12-15T01:39:27.494Z,801.58
2022-12-15T01:40:27.504Z,801.61
2022-12-15T01:41:27.503Z,801.66
2022-12-15T01:42:27.515Z,801.67
2022-12-15T01:43:27.701Z,801.67
2022-12-15T01:44:27.522Z,801.70
2022-12-15T01:45:27.527Z,801.69
2022-12-15T01:46:27.612Z,801.79
2022-12-15T01:47:27.543Z,801.72
2022-12-15T01:48:27.549Z,801.75
2022-12-15T01:49:27.550Z,801.76
2022-12-15T01:50:27.558Z,801.79
2022-12-15T01:51:27.561Z,801.78
2022-12-15T01:52:27.569Z,801.75
2022-12-15T01:53:27.892Z,801.72
2022-12-15T01:54:27.583Z,801.68
2022-12-15T01:55:27.597Z,801.72
2022-12-15T01:56:31.147Z,801.74
2022-12-15T01:57:27.596Z,801.76
2022-12-15T01:58:27.608Z,801.80
2022-12-15T01:59:27.606Z,801.83
2022-12-15T02:00:27.689Z,801.83
2022-12-15T02:01:27.716Z,801.85
2022-12-15T02:02:27.734Z,801.85
2022-12-15T02:03:27.862Z,801.89
2022-12-15T02:04:27.642Z,801.86
2022-12-15T02:05:27.640Z,801.82
2022-12-15T02:06:27.651Z,801.84
2022-12-15T02:07:27.653Z,801.82
2022-12-15T02:08:27.660Z,801.84
2022-12-15T02:09:27.690Z,801.82
2022-12-15T02:10:27.673Z,801.78
2022-12-15T02:11:27.686Z,801.80
2022-12-15T02:12:27.687Z,801.81
2022-12-15T02:13:27.979Z,801.74
2022-12-15T02:14:27.697Z,801.76
2022-12-15T02:15:27.699Z,801.78
2022-12-15T02:16:27.751Z,801.72
2022-12-15T02:17:27.709Z,801.68
2022-12-15T02:18:27.723Z,801.68
2022-12-15T02:19:27.721Z,801.66
2022-12-15T02:20:27.731Z,801.59
2022-12-15T02:21:27.733Z,801.60
2022-12-15T02:22:27.745Z,801.57
2022-12-15T02:23:27.986Z,801.55
2022-12-15T02:24:27.752Z,801.55
2022-12-15T02:25:27.780Z,801.57
2022-12-15T02:26:27.769Z,801.57
2022-12-15T02:27:27.768Z,801.58
2022-12-15T02:28:27.776Z,801.54
2022-12-15T02:29:27.776Z,801.55
2022-12-15T02:30:27.787Z,801.53
2022-12-15T02:31:27.927Z,801.50
2022-12-15T02:32:27.799Z,801.52
2022-12-15T02:33:28.140Z,801.52
2022-12-15T02:34:27.816Z,801.48
2022-12-15T02:35:27.813Z,801.49
2022-12-15T02:36:27.821Z,801.50
2022-12-15T02:37:27.827Z,801.47
2022-12-15T02:38:27.838Z,801.44
2022-12-15T02:39:27.837Z,801.45
2022-12-15T02:40:27.851Z,801.45
2022-12-15T02:41:27.939Z,801.45
2022-12-15T02:42:27.865Z,801.43
2022-12-15T02:43:28.220Z,801.46
2022-12-15T02:44:27.869Z,801.43
2022-12-15T02:45:27.908Z,801.43
2022-12-15T02:46:27.882Z,801.43
2022-12-15T02:47:27.881Z,801.40
2022-12-15T02:48:27.892Z,801.39
2022-12-15T02:49:27.892Z,801.38
2022-12-15T02:50:27.900Z,801.35
2022-12-15T02:51:27.906Z,801.31
2022-12-15T02:52:27.942Z,801.32
2022-12-15T02:53:28.245Z,801.34
2022-12-15T02:54:27.926Z,801.32
2022-12-15T02:55:27.925Z,801.30
2022-12-15T02:56:27.938Z,801.31
2022-12-15T02:57:28.032Z,801.29
2022-12-15T02:58:27.945Z,801.28
2022-12-15T02:59:27.955Z,801.26
2022-12-15T03:00:27.961Z,801.29
2022-12-15T03:01:28.095Z,801.30
2022-12-15T03:02:28.103Z,801.28
2022-12-15T03:03:28.219Z,801.30
2022-12-15T03:04:27.983Z,801.27
2022-12-15T03:05:27.984Z,801.32
2022-12-15T03:06:27.992Z,801.27
2022-12-15T03:07:28.034Z,801.29
2022-12-15T03:08:28.001Z,801.26
2022-12-15T03:09:28.007Z,801.28
2022-12-15T03:10:28.012Z,801.35
2022-12-15T03:11:28.018Z,801.36
2022-12-15T03:12:28.024Z,801.37
2022-12-15T03:13:28.445Z,801.40
2022-12-15T03:14:28.035Z,801.38
2022-12-15T03:15:33.556Z,801.40
2022-12-15T03:16:28.072Z,801.45
2022-12-15T03:17:28.048Z,801.42
2022-12-15T03:18:28.060Z,801.45
2022-12-15T03:19:28.068Z,801.45
2022-12-15T03:20:28.069Z,801.44
2022-12-15T03:21:28.071Z,801.48
2022-12-15T03:22:28.176Z,801.46
2022-12-15T03:23:28.628Z,801.45
2022-12-15T03:24:28.091Z,801.47
2022-12-15T03:25:28.093Z,801.48
2022-12-15T03:26:28.099Z,801.48
2022-12-15T03:27:28.111Z,801.46
2022-12-15T03:28:28.119Z,801.47
2022-12-15T03:29:28.190Z,801.44
2022-12-15T03:30:28.122Z,801.45
2022-12-15T03:31:28.155Z,801.43
2022-12-15T03:32:28.129Z,801.43
2022-12-15T03:33:28.621Z,801.46
2022-12-15T03:34:28.141Z,801.47
2022-12-15T03:35:28.144Z,801.48
2022-12-15T03:36:28.158Z,801.48
2022-12-15T03:37:28.157Z,801.47
2022-12-15T03:38:28.197Z,801.45
2022-12-15T03:39:28.186Z,801.44
2022-12-15T03:40:28.176Z,801.49
2022-12-15T03:41:28.174Z,801.52
2022-12-15T03:42:28.182Z,801.46
2022-12-15T03:43:28.699Z,801.46
2022-12-15T03:44:28.192Z,801.48
2022-12-15T03:45:28.226Z,801.46
2022-12-15T03:46:28.267Z,801.40
2022-12-15T03:47:28.205Z,801.39
2022-12-15T03:48:28.214Z,801.36
2022-12-15T03:49:28.217Z,801.35
2022-12-15T03:50:28.230Z,801.30
2022-12-15T03:51:28.258Z,801.33
2022-12-15T03:52:28.235Z,801.31
2022-12-15T03:53:28.498Z,801.28
2022-12-15T03:54:28.246Z,801.26
2022-12-15T03:55:28.246Z,801.27
2022-12-15T03:56:28.256Z,801.22
2022-12-15T03:57:28.257Z,801.24
2022-12-15T03:58:28.262Z,801.25
2022-12-15T03:59:28.269Z,801.28
2022-12-15T04:00:28.271Z,801.37
2022-12-15T04:01:28.461Z,801.33
2022-12-15T04:02:28.504Z,801.34
2022-12-15T04:03:28.839Z,801.38
2022-12-15T04:04:28.294Z,801.32
2022-12-15T04:05:28.310Z,801.31
2022-12-15T04:06:28.313Z,801.28
2022-12-15T04:07:28.313Z,801.27
2022-12-15T04:08:28.317Z,801.26
2022-12-15T04:09:28.326Z,801.27
2022-12-15T04:10:33.564Z,801.23
2022-12-15T04:11:28.336Z,801.23
2022-12-15T04:12:28.332Z,801.22
2022-12-15T04:13:28.684Z,801.17
2022-12-15T04:14:28.347Z,801.22
2022-12-15T04:15:28.357Z,801.17
2022-12-15T04:16:28.377Z,801.17
2022-12-15T04:17:28.386Z,801.13
2022-12-15T04:18:28.368Z,801.09
2022-12-15T04:19:28.376Z,801.11
2022-12-15T04:20:28.375Z,801.12
2022-12-15T04:21:28.386Z,801.12
2022-12-15T04:22:28.389Z,801.09
2022-12-15T04:23:28.638Z,801.14
2022-12-15T04:24:28.395Z,801.13
2022-12-15T04:25:28.406Z,801.11
2022-12-15T04:26:28.407Z,801.11
2022-12-15T04:27:28.417Z,801.10
2022-12-15T04:28:28.417Z,801.17
2022-12-15T04:29:28.424Z,801.19
2022-12-15T04:30:28.436Z,801.17
2022-12-15T04:31:28.512Z,801.16
2022-12-15T04:32:28.437Z,801.16
2022-12-15T04:33:30.918Z,801.18
2022-12-15T04:34:28.447Z,801.15
2022-12-15T04:35:28.455Z,801.16
2022-12-15T04:36:28.458Z,801.17
2022-12-15T04:37:28.467Z,801.22
2022-12-15T04:38:28.471Z,801.30
2022-12-15T04:39:28.477Z,801.31
2022-12-15T04:40:28.482Z,801.33
2022-12-15T04:41:28.488Z,801.34
2022-12-15T04:42:28.488Z,801.33
2022-12-15T04:43:28.833Z,801.32
2022-12-15T04:44:28.505Z,801.28
2022-12-15T04:45:28.506Z,801.27
2022-12-15T04:46:28.537Z,801.28
2022-12-15T04:47:28.518Z,801.24
2022-12-15T04:48:28.521Z,801.26
2022-12-15T04:49:28.548Z,801.26
2022-12-15T04:50:28.533Z,801.26
2022-12-15T04:51:28.557Z,801.25
2022-12-15T04:52:28.541Z,801.32
2022-12-15T04:53:29.052Z,801.27
2022-12-15T04:54:28.551Z,801.25
2022-12-15T04:55:28.559Z,801.21
2022-12-15T04:56:28.561Z,801.22
2022-12-15T04:57:28.568Z,801.22
2022-12-15T04:58:28.576Z,801.15
2022-12-15T04:59:28.584Z,801.16
2022-12-15T05:00:28.584Z,801.20
2022-12-15T05:01:28.693Z,801.15
2022-12-15T05:02:28.730Z,801.13
2022-12-15T05:03:28.602Z,801.06
2022-12-15T05:04:28.670Z,801.06
2022-12-15T05:05:28.629Z,801.08
2022-12-15T05:06:28.616Z,801.09
2022-12-15T05:07:28.623Z,801.09
2022-12-15T05:08:28.622Z,801.08
2022-12-15T05:09:28.734Z,801.07
2022-12-15T05:10:28.635Z,801.08
2022-12-15T05:11:28.659Z,801.07
2022-12-15T05:12:28.645Z,801.04
2022-12-15T05:13:28.947Z,801.03
2022-12-15T05:14:28.663Z,801.09
2022-12-15T05:15:28.699Z,801.09
2022-12-15T05:16:28.665Z,801.06
2022-12-15T05:17:28.769Z,801.07
2022-12-15T05:18:28.677Z,801.07
2022-12-15T05:19:28.682Z,801.08
2022-12-15T05:20:28.685Z,801.03
2022-12-15T05:21:28.713Z,801.01
2022-12-15T05:22:28.696Z,800.98
2022-12-15T05:23:29.016Z,800.95
2022-12-15T05:24:28.707Z,800.93
2022-12-15T05:25:28.713Z,800.94
2022-12-15T05:26:28.718Z,800.94
2022-12-15T05:27:28.727Z,800.99
2022-12-15T05:28:28.726Z,801.04
2022-12-15T05:29:28.738Z,801.04
2022-12-15T05:30:28.740Z,801.07
2022-12-15T05:31:28.821Z,801.02
2022-12-15T05:32:28.746Z,801.02
2022-12-15T05:33:29.014Z,801.00
2022-12-15T05:34:28.760Z,801.04
2022-12-15T05:35:28.766Z,801.02
2022-12-15T05:36:28.772Z,801.00
2022-12-15T05:37:28.800Z,801.03
2022-12-15T05:38:28.790Z,801.01
2022-12-15T05:39:28.790Z,801.00
2022-12-15T05:40:28.789Z,800.96
2022-12-15T05:41:28.812Z,800.94
2022-12-15T05:42:28.802Z,800.93
2022-12-15T05:43:29.367Z,800.93
2022-12-15T05:44:28.833Z,800.95
2022-12-15T05:45:28.822Z,800.98
2022-12-15T05:46:28.972Z,801.00
2022-12-15T05:47:28.885Z,801.00
2022-12-15T05:48:28.833Z,801.01
2022-12-15T05:49:28.844Z,800.95
2022-12-15T05:50:28.848Z,800.95
2022-12-15T05:51:28.854Z,800.95
2022-12-15T05:52:28.855Z,800.94
2022-12-15T05:53:29.409Z,800.96
2022-12-15T05:54:28.868Z,800.98
2022-12-15T05:55:28.887Z,800.94
2022-12-15T05:56:28.877Z,800.88
2022-12-15T05:57:28.888Z,800.89
2022-12-15T05:58:28.889Z,800.90
2022-12-15T05:59:28.896Z,800.89
2022-12-15T06:00:28.903Z,800.93
2022-12-15T06:01:28.970Z,800.91
2022-12-15T06:02:28.984Z,800.95
2022-12-15T06:03:29.290Z,800.97
2022-12-15T06:04:28.928Z,800.95
2022-12-15T06:05:28.929Z,800.97
2022-12-15T06:06:28.935Z,800.97
2022-12-15T06:07:28.964Z,800.94
2022-12-15T06:08:28.950Z,800.92
2022-12-15T06:09:28.978Z,800.83
2022-12-15T06:10:28.956Z,800.83
2022-12-15T06:11:28.968Z,800.87
2022-12-15T06:12:28.963Z,800.83
2022-12-15T06:13:29.417Z,800.84
2022-12-15T06:14:28.978Z,800.86
2022-12-15T06:15:28.985Z,800.82
2022-12-15T06:16:29.140Z,800.80
2022-12-15T06:17:28.997Z,800.80
2022-12-15T06:18:28.996Z,800.75
2022-12-15T06:19:29.006Z,800.74
2022-12-15T06:20:29.010Z,800.70
2022-12-15T06:21:29.022Z,800.65
2022-12-15T06:22:29.020Z,800.65
2022-12-15T06:23:29.441Z,800.63
2022-12-15T06:24:29.029Z,800.63
2022-12-15T06:25:29.059Z,800.58
2022-12-15T06:26:29.041Z,800.58
2022-12-15T06:27:29.049Z,800.59
2022-12-15T06:28:29.052Z,800.57
2022-12-15T06:29:29.060Z,800.59
2022-12-15T06:30:29.065Z,800.62
2022-12-15T06:31:29.180Z,800.62
2022-12-15T06:32:29.083Z,800.62
2022-12-15T06:33:29.467Z,800.57
2022-12-15T06:34:29.093Z,800.56
2022-12-15T06:35:29.092Z,800.55
2022-12-15T06:36:29.096Z,800.48
2022-12-15T06:37:29.119Z,800.45
2022-12-15T06:38:29.108Z,800.49
2022-12-15T06:39:29.116Z,800.52
2022-12-15T06:40:31.060Z,800.59
2022-12-15T06:41:29.146Z,800.61
2022-12-15T06:42:29.130Z,800.72
2022-12-15T06:43:29.604Z,800.74
2022-12-15T06:44:29.139Z,800.81
2022-12-15T06:45:29.153Z,800.83
2022-12-15T06:46:29.328Z,800.85
2022-12-15T06:47:29.159Z,800.83
2022-12-15T06:48:29.278Z,800.76
2022-12-15T06:49:29.178Z,800.87
2022-12-15T06:50:29.176Z,800.82
2022-12-15T06:51:29.182Z,800.76
2022-12-15T06:52:29.183Z,800.82
2022-12-15T06:53:29.622Z,800.84
2022-12-15T06:54:29.194Z,800.92
2022-12-15T06:55:29.204Z,800.97
2022-12-15T06:56:33.681Z,801.03
2022-12-15T06:57:29.249Z,801.02
2022-12-15T06:58:29.220Z,801.07
2022-12-15T06:59:29.224Z,801.03
2022-12-15T07:00:29.291Z,801.07
2022-12-15T07:01:29.425Z,801.07
2022-12-15T07:02:29.519Z,801.11
2022-12-15T07:03:29.769Z,801.12
2022-12-15T07:04:29.278Z,801.11
2022-12-15T07:05:29.259Z,801.13
2022-12-15T07:06:29.261Z,801.20
2022-12-15T07:07:29.273Z,801.19
2022-12-15T07:08:32.289Z,801.22
2022-12-15T07:09:29.291Z,801.21
2022-12-15T07:10:29.488Z,801.24
2022-12-15T07:11:29.303Z,801.24
2022-12-15T07:12:29.295Z,801.26
2022-12-15T07:13:29.745Z,801.29
2022-12-15T07:14:29.303Z,801.31
2022-12-15T07:15:29.313Z,801.28
2022-12-15T07:16:29.425Z,801.26
2022-12-15T07:17:29.337Z,801.20
2022-12-15T07:18:29.325Z,801.20
2022-12-15T07:19:29.332Z,801.16
2022-12-15T07:20:29.360Z,801.15
2022-12-15T07:21:29.342Z,801.19
2022-12-15T07:22:29.351Z,801.16
2022-12-15T07:23:52.769Z,801.21
2022-12-15T07:24:29.355Z,801.27
2022-12-15T07:25:29.366Z,801.26
2022-12-15T07:26:29.365Z,801.35
2022-12-15T07:27:29.374Z,801.36
2022-12-15T07:28:29.783Z,801.36
2022-12-15T07:29:29.405Z,801.40
2022-12-15T07:30:33.602Z,801.38
2022-12-15T07:31:29.467Z,801.42
2022-12-15T07:32:29.404Z,801.42
2022-12-15T07:33:29.747Z,801.43
2022-12-15T07:34:29.412Z,801.41
2022-12-15T07:35:29.430Z,801.46
2022-12-15T07:36:29.524Z,801.45
2022-12-15T07:37:29.431Z,801.49
2022-12-15T07:38:29.433Z,801.55
2022-12-15T07:39:29.447Z,801.54
2022-12-15T07:40:29.444Z,801.55
2022-12-15T07:41:29.451Z,801.58
2022-12-15T07:42:29.454Z,801.63
2022-12-15T07:43:29.934Z,801.69
2022-12-15T07:44:29.519Z,801.74
2022-12-15T07:45:29.542Z,801.74
2022-12-15T07:46:29.555Z,801.70
2022-12-15T07:47:29.487Z,801.64
2022-12-15T07:48:29.490Z,801.57
2022-12-15T07:49:29.515Z,801.60
2022-12-15T07:50:29.499Z,801.62
2022-12-15T07:51:29.507Z,801.54
2022-12-15T07:52:29.512Z,801.52
2022-12-15T07:53:29.930Z,801.43
2022-12-15T07:54:29.528Z,801.45
2022-12-15T07:55:57.315Z,801.46
2022-12-15T07:56:32.227Z,801.45
2022-12-15T07:57:29.544Z,801.49
2022-12-15T07:58:29.545Z,801.48
2022-12-15T07:59:29.558Z,801.45
2022-12-15T08:00:29.577Z,801.41
2022-12-15T08:01:29.761Z,801.42
2022-12-15T08:02:29.773Z,801.41
2022-12-15T08:03:30.096Z,801.43
2022-12-15T08:04:29.578Z,801.47
2022-12-15T08:05:29.586Z,801.42
2022-12-15T08:06:29.590Z,801.43
2022-12-15T08:07:29.600Z,801.42
2022-12-15T08:08:30.020Z,801.36
2022-12-15T08:09:29.710Z,801.31
2022-12-15T08:10:29.616Z,801.28
2022-12-15T08:11:29.625Z,801.28
2022-12-15T08:12:29.623Z,801.26
2022-12-15T08:14:00.731Z,801.25
2022-12-15T08:14:29.637Z,801.22
2022-12-15T08:15:29.641Z,801.19
2022-12-15T08:16:29.778Z,801.17
2022-12-15T08:17:29.675Z,801.17
2022-12-15T08:18:29.662Z,801.15
2022-12-15T08:19:29.665Z,801.12
2022-12-15T08:20:29.677Z,801.14
2022-12-15T08:21:29.675Z,801.16
2022-12-15T08:22:29.685Z,801.17
2022-12-15T08:23:30.143Z,801.16
2022-12-15T08:24:29.695Z,801.18
2022-12-15T08:25:29.708Z,801.21
2022-12-15T08:26:31.048Z,801.18
2022-12-15T08:27:29.709Z,801.19
2022-12-15T08:28:29.719Z,801.14
2022-12-15T08:29:50.695Z,801.15
2022-12-15T08:30:29.736Z,801.15
2022-12-15T08:31:29.783Z,801.18
2022-12-15T08:32:29.752Z,801.18
2022-12-15T08:33:30.219Z,801.24
2022-12-15T08:34:29.758Z,801.23
2022-12-15T08:35:55.286Z,801.27
2022-12-15T08:36:29.770Z,801.30
2022-12-15T08:37:29.768Z,801.36
2022-12-15T08:38:29.779Z,801.36
2022-12-15T08:39:29.782Z,801.35
2022-12-15T08:40:29.791Z,801.41
2022-12-15T08:41:29.794Z,801.39
2022-12-15T08:42:29.801Z,801.45
2022-12-15T08:43:30.416Z,801.47
2022-12-15T08:44:29.823Z,801.45
2022-12-15T08:45:29.871Z,801.50
2022-12-15T08:46:29.903Z,801.49
2022-12-15T08:47:29.828Z,801.51
2022-12-15T08:48:29.841Z,801.55
2022-12-15T08:49:29.868Z,801.55
2022-12-15T08:50:29.851Z,801.50
2022-12-15T08:51:29.858Z,801.52
2022-12-15T08:52:29.867Z,801.48
2022-12-15T08:53:31.604Z,801.49
2022-12-15T08:54:29.881Z,801.48
2022-12-15T08:55:29.882Z,801.48
2022-12-15T08:56:29.989Z,801.44
2022-12-15T08:57:29.890Z,801.47
2022-12-15T08:58:29.902Z,801.47
2022-12-15T08:59:29.903Z,801.48
2022-12-15T09:00:29.911Z,801.46
2022-12-15T09:01:30.051Z,801.46
2022-12-15T09:02:30.029Z,801.49
2022-12-15T09:03:30.331Z,801.46
2022-12-15T09:04:29.980Z,801.41
2022-12-15T09:05:29.958Z,801.43
2022-12-15T09:06:29.950Z,801.39
2022-12-15T09:07:29.960Z,801.38
2022-12-15T09:08:29.962Z,801.33
2022-12-15T09:09:29.972Z,801.33
2022-12-15T09:10:29.974Z,801.36
2022-12-15T09:11:29.977Z,801.35
2022-12-15T09:12:29.989Z,801.32
2022-12-15T09:13:30.547Z,801.32
2022-12-15T09:14:29.999Z,801.32
2022-12-15T09:16:00.218Z,801.29
2022-12-15T09:16:30.107Z,801.28
2022-12-15T09:17:30.024Z,801.27
2022-12-15T09:18:30.026Z,801.28
2022-12-15T09:19:30.026Z,801.27
2022-12-15T09:20:30.042Z,801.25
2022-12-15T09:21:30.082Z,801.23
2022-12-15T09:22:30.053Z,801.22
2022-12-15T09:23:30.507Z,801.23
2022-12-15T09:24:35.108Z,801.23
2022-12-15T09:25:30.170Z,801.24
2022-12-15T09:26:30.077Z,801.27
2022-12-15T09:27:30.110Z,801.22
2022-12-15T09:28:30.099Z,801.23
2022-12-15T09:29:30.094Z,801.22
2022-12-15T09:30:30.220Z,801.24
2022-12-15T09:31:30.242Z,801.26
2022-12-15T09:32:30.119Z,801.29
2022-12-15T09:33:30.590Z,801.26
2022-12-15T09:34:30.158Z,801.26
2022-12-15T09:35:30.164Z,801.29
2022-12-15T09:36:30.160Z,801.26
2022-12-15T09:37:30.173Z,801.25
2022-12-15T09:38:30.182Z,801.25
2022-12-15T09:39:30.182Z,801.22
2022-12-15T09:40:30.171Z,801.23
2022-12-15T09:41:30.187Z,801.21
2022-12-15T09:42:30.190Z,801.21
2022-12-15T09:43:46.405Z,801.22
2022-12-15T09:44:30.197Z,801.18
2022-12-15T09:45:30.205Z,801.22
2022-12-15T09:46:30.380Z,801.23
2022-12-15T09:47:30.238Z,801.22
2022-12-15T09:48:30.229Z,801.25
2022-12-15T09:49:30.236Z,801.28
2022-12-15T09:50:30.242Z,801.24
2022-12-15T09:51:30.247Z,801.21
2022-12-15T09:52:30.259Z,801.27
2022-12-15T09:53:54.127Z,801.27
2022-12-15T09:54:30.310Z,801.23
2022-12-15T09:55:30.293Z,801.23
2022-12-15T09:56:30.282Z,801.23
2022-12-15T09:57:30.291Z,801.18
2022-12-15T09:58:30.302Z,801.18
2022-12-15T09:59:30.304Z,801.17
2022-12-15T10:00:30.311Z,801.16
2022-12-15T10:01:30.398Z,801.14
2022-12-15T10:02:30.403Z,801.14
2022-12-15T10:03:31.170Z,801.19
2022-12-15T10:04:30.362Z,801.20
2022-12-15T10:05:57.611Z,801.21
2022-12-15T10:06:33.287Z,801.19
2022-12-15T10:07:30.422Z,801.17
2022-12-15T10:08:30.368Z,801.18
2022-12-15T10:09:30.400Z,801.16
2022-12-15T10:10:30.401Z,801.19
2022-12-15T10:11:30.389Z,801.20
2022-12-15T10:12:30.398Z,801.15
2022-12-15T10:13:30.825Z,801.20
2022-12-15T10:14:30.416Z,801.16
2022-12-15T10:15:30.510Z,801.08
2022-12-15T10:16:30.429Z,801.06
2022-12-15T10:17:30.438Z,800.98
2022-12-15T10:18:30.445Z,800.94
2022-12-15T10:19:30.450Z,800.92
2022-12-15T10:20:30.455Z,800.87
2022-12-15T10:21:30.460Z,800.83
2022-12-15T10:22:30.472Z,800.87
2022-12-15T10:23:30.993Z,800.91
2022-12-15T10:25:09.177Z,800.86
2022-12-15T10:25:31.057Z,800.85
2022-12-15T10:26:30.499Z,800.80
2022-12-15T10:27:30.503Z,800.83
2022-12-15T10:28:30.515Z,800.82
2022-12-15T10:29:30.547Z,800.78
2022-12-15T10:30:30.683Z,800.83
2022-12-15T10:31:30.624Z,800.79
2022-12-15T10:32:30.543Z,800.75
2022-12-15T10:33:31.108Z,800.80
2022-12-15T10:34:30.633Z,800.79
2022-12-15T10:35:30.564Z,800.78
2022-12-15T10:36:30.573Z,800.76
2022-12-15T10:37:30.578Z,800.73
2022-12-15T10:38:30.590Z,800.74
2022-12-15T10:39:30.596Z,800.72
2022-12-15T10:40:30.602Z,800.70
2022-12-15T10:41:30.629Z,800.69
2022-12-15T10:42:30.623Z,800.64
2022-12-15T10:43:31.341Z,800.67
2022-12-15T10:44:32.408Z,800.65
2022-12-15T10:45:30.637Z,800.65
2022-12-15T10:46:30.849Z,800.63
2022-12-15T10:47:30.650Z,800.65
2022-12-15T10:48:30.661Z,800.65
2022-12-15T10:49:30.666Z,800.63
2022-12-15T10:50:30.678Z,800.63
2022-12-15T10:51:30.681Z,800.61
2022-12-15T10:52:30.694Z,800.57
2022-12-15T10:53:31.154Z,800.62
2022-12-15T10:54:30.709Z,800.60
2022-12-15T10:55:30.711Z,800.59
2022-12-15T10:56:33.679Z,800.60
2022-12-15T10:57:30.744Z,800.59
2022-12-15T10:58:30.750Z,800.57
2022-12-15T10:59:30.744Z,800.56
2022-12-15T11:00:30.750Z,800.52
2022-12-15T11:01:30.913Z,800.52
2022-12-15T11:02:31.068Z,800.55
2022-12-15T11:03:31.442Z,800.54
2022-12-15T11:04:30.911Z,800.54
2022-12-15T11:05:30.786Z,800.55
2022-12-15T11:06:30.799Z,800.57
2022-12-15T11:07:30.803Z,800.55
2022-12-15T11:08:30.814Z,800.56
2022-12-15T11:09:30.817Z,800.57
2022-12-15T11:10:30.828Z,800.59
2022-12-15T11:11:30.832Z,800.55
2022-12-15T11:12:30.841Z,800.54
2022-12-15T11:13:34.853Z,800.53
2022-12-15T11:14:30.857Z,800.56
2022-12-15T11:15:30.945Z,800.51
2022-12-15T11:16:30.875Z,800.47
2022-12-15T11:17:30.878Z,800.41
2022-12-15T11:18:30.889Z,800.40
2022-12-15T11:19:30.890Z,800.32
2022-12-15T11:20:30.905Z,800.35
2022-12-15T11:21:30.913Z,800.34
2022-12-15T11:22:30.919Z,800.31
2022-12-15T11:23:31.382Z,800.30
2022-12-15T11:24:30.936Z,800.30
2022-12-15T11:25:30.939Z,800.26
2022-12-15T11:26:30.957Z,800.17
2022-12-15T11:27:30.955Z,800.13
2022-12-15T11:28:30.965Z,800.15
2022-12-15T11:29:30.992Z,800.16
2022-12-15T11:30:30.981Z,800.17
2022-12-15T11:31:30.982Z,800.14
2022-12-15T11:32:31.001Z,800.13
2022-12-15T11:33:31.512Z,800.12
2022-12-15T11:34:31.012Z,800.08
2022-12-15T11:35:31.013Z,800.08
2022-12-15T11:36:31.028Z,800.07
2022-12-15T11:37:36.204Z,800.07
2022-12-15T11:38:31.064Z,800.04
2022-12-15T11:39:31.045Z,800.08
2022-12-15T11:40:31.061Z,800.07
2022-12-15T11:41:31.058Z,800.02
2022-12-15T11:42:31.084Z,799.99
2022-12-15T11:43:31.619Z,799.98
2022-12-15T11:44:31.135Z,799.97
2022-12-15T11:45:31.118Z,799.99
2022-12-15T11:46:31.101Z,799.97
2022-12-15T11:47:31.102Z,799.97
2022-12-15T11:48:31.115Z,799.92
2022-12-15T11:49:31.190Z,799.89
2022-12-15T11:50:31.128Z,799.87
2022-12-15T11:51:31.140Z,799.86
2022-12-15T11:52:31.150Z,799.82
2022-12-15T11:53:31.627Z,799.83
2022-12-15T11:54:31.160Z,799.82
2022-12-15T11:56:31.175Z,799.78
2022-12-15T11:57:31.179Z,799.78
2022-12-15T11:58:31.469Z,799.76
2022-12-15T11:59:31.193Z,799.69
2022-12-15T12:00:31.204Z,799.68
2022-12-15T12:01:31.265Z,799.65
2022-12-15T12:02:31.368Z,799.63
2022-12-15T12:03:31.255Z,799.56
2022-12-15T12:04:31.537Z,799.53
2022-12-15T12:05:31.243Z,799.55
2022-12-15T12:06:31.251Z,799.53
2022-12-15T12:07:32.852Z,799.52
2022-12-15T12:08:31.703Z,799.54
2022-12-15T12:09:31.270Z,799.53
2022-12-15T12:10:31.280Z,799.54
2022-12-15T12:11:31.332Z,799.51
2022-12-15T12:12:31.291Z,799.49
2022-12-15T12:13:31.299Z,799.43
2022-12-15T12:14:31.310Z,799.41
2022-12-15T12:15:31.312Z,799.36
2022-12-15T12:16:31.324Z,799.32
2022-12-15T12:17:31.350Z,799.34
2022-12-15T12:18:31.765Z,799.32
2022-12-15T12:19:31.412Z,799.28
2022-12-15T12:20:31.355Z,799.28
2022-12-15T12:21:31.373Z,799.28
2022-12-15T12:22:31.371Z,799.28
2022-12-15T12:23:31.390Z,799.25
2022-12-15T12:24:31.382Z,799.19
2022-12-15T12:25:31.392Z,799.21
2022-12-15T12:26:31.400Z,799.20
2022-12-15T12:27:31.409Z,799.20
2022-12-15T12:28:31.767Z,799.20
2022-12-15T12:29:31.424Z,799.19